Terminal Aerodrome Forecast
Issued by NWS Cleveland, OH

Home | Current Version | Previous Version | Graphics & Text | Print | Product List | Glossary On
Versions: 1 2 3 4 5 6 7 8 9 10 11 12 13 14 15 16 17 18 19 20 21 22 23 24
000
FTUS41 KCLE 191400 AAA
TAFYNG
TAF AMD
KYNG 191429Z 1914/2012 14008KT 5SM -SHRA SCT008 OVC015
      TEMPO 1914/1916 BKN008 OVC015
     FM191630 14008KT P6SM OVC018
     FM191900 16010KT P6SM VCTS BKN030CB OVC050
      TEMPO 1919/1923 4SM -SHRA OVC030
     FM200200 VRB03KT P6SM BKN035 OVC050
     FM200900 00000KT 2SM BR BKN030=

USA.gov is the U.S. government's official web portal to all federal, state and local government web resources and services.